Time;durP1;ratioP1;P1;durP2;ratioP2;P2;SDS_P1;SDS_P2;PMS_P1;PMS_P2;Temp;Humidity;BMP_temperature;BMP_pressure;BME280_temperature;BME280_humidity;BME280_pressure;Samples;Min_cycle;Max_cycle;Signal;HPM_P1;HPM_P2
2020/12/30 00:00:49;;;;;;;9.57;5.57;;;;;;;-1.20;96.56;95082.94;5025080;28;20053;-61
2020/12/30 00:03:14;;;;;;;13.40;6.57;;;;;;;-1.23;96.34;95095.13;5037847;28;20041;-56
2020/12/30 00:05:41;;;;;;;21.70;10.80;;;;;;;-1.19;96.55;95101.41;5046053;28;20037;-59
2020/12/30 00:08:06;;;;;;;12.77;7.28;;;;;;;-1.03;96.35;95106.16;5043397;28;20048;-62
2020/12/30 00:10:32;;;;;;;12.57;6.57;;;;;;;-1.01;96.28;95104.72;5027782;28;20040;-58
2020/12/30 00:12:58;;;;;;;12.10;6.80;;;;;;;-0.94;96.35;95111.47;5042459;28;20477;-59
2020/12/30 00:15:23;;;;;;;10.73;6.00;;;;;;;-0.89;96.45;95108.56;5037274;28;20073;-60
2020/12/30 00:17:49;;;;;;;12.20;6.18;;;;;;;-0.94;95.90;95114.16;5040499;28;20696;-56
2020/12/30 00:20:16;;;;;;;10.25;6.75;;;;;;;-0.94;95.82;95109.53;5036335;28;20072;-60
2020/12/30 00:22:43;;;;;;;9.18;6.05;;;;;;;-0.94;95.68;95112.22;5041331;28;20090;-59
2020/12/30 00:25:09;;;;;;;8.00;5.80;;;;;;;-0.90;95.26;95105.09;5035798;28;20048;-61
2020/12/30 00:27:37;;;;;;;9.93;5.32;;;;;;;-0.99;95.15;95101.69;5042038;28;20585;-59
2020/12/30 00:30:10;;;;;;;8.95;5.95;;;;;;;-1.07;95.20;95114.09;5039911;28;20041;-61
2020/12/30 00:32:36;;;;;;;9.32;5.32;;;;;;;-1.12;95.03;95110.84;5023223;28;20040;-59
2020/12/30 00:35:03;;;;;;;8.65;5.20;;;;;;;-1.22;95.04;95110.13;5039002;28;20665;-61
2020/12/30 00:37:29;;;;;;;7.38;5.10;;;;;;;-1.21;95.31;95109.00;5023233;28;20079;-58
2020/12/30 00:39:54;;;;;;;10.05;5.28;;;;;;;-1.16;94.90;95100.75;5041317;28;20409;-59
2020/12/30 00:42:19;;;;;;;9.40;5.43;;;;;;;-1.06;95.24;95115.69;5035780;28;20531;-59
2020/12/30 00:44:45;;;;;;;10.00;5.45;;;;;;;-1.06;94.56;95110.31;5022703;28;20045;-58
2020/12/30 00:47:10;;;;;;;9.13;5.95;;;;;;;-1.06;94.47;95117.56;5017835;28;20163;-58
2020/12/30 00:49:36;;;;;;;7.82;5.85;;;;;;;-1.13;94.07;95115.44;5041149;28;20057;-60
2020/12/30 00:52:01;;;;;;;16.17;8.48;;;;;;;-1.22;94.13;95118.19;5041236;28;20549;-58
2020/12/30 00:54:27;;;;;;;12.57;6.15;;;;;;;-1.42;95.45;95110.94;5034806;28;20045;-60
2020/12/30 00:56:52;;;;;;;11.30;5.60;;;;;;;-1.42;95.21;95110.94;5039032;28;20044;-59
2020/12/30 00:59:18;;;;;;;12.02;6.03;;;;;;;-1.48;95.89;95109.56;5035047;28;20044;-58
2020/12/30 01:01:49;;;;;;;10.23;6.38;;;;;;;-1.54;96.39;95117.03;5040684;28;20073;-60
2020/12/30 01:04:15;;;;;;;15.07;8.20;;;;;;;-1.62;96.35;95109.81;5034901;28;20079;-59
2020/12/30 01:06:40;;;;;;;10.55;6.43;;;;;;;-1.64;96.43;95125.47;5041783;28;20077;-60
2020/12/30 01:09:06;;;;;;;8.05;5.80;;;;;;;-1.72;96.50;95121.72;5036336;28;20076;-60
2020/12/30 01:11:32;;;;;;;50.60;18.88;;;;;;;-1.75;97.01;95125.88;5041731;28;20041;-56
2020/12/30 01:13:58;;;;;;;12.15;7.18;;;;;;;-1.80;97.76;95126.06;5049177;28;20524;-59
2020/12/30 01:16:25;;;;;;;30.98;13.70;;;;;;;-1.89;97.84;95127.19;5047695;28;20049;-60
2020/12/30 01:18:50;;;;;;;16.98;9.23;;;;;;;-1.88;98.17;95131.47;5041963;28;20135;-57
2020/12/30 01:21:16;;;;;;;13.55;8.23;;;;;;;-1.89;97.76;95130.69;5018041;28;20036;-61
2020/12/30 01:23:41;;;;;;;14.55;8.02;;;;;;;-1.92;97.68;95136.69;5023128;28;20056;-60
2020/12/30 01:26:08;;;;;;;15.15;7.70;;;;;;;-1.98;97.74;95130.72;5036060;28;20037;-60
2020/12/30 01:28:33;;;;;;;12.05;7.40;;;;;;;-1.89;97.89;95140.63;5041043;28;20044;-58
2020/12/30 01:30:58;;;;;;;10.77;7.07;;;;;;;-1.92;98.37;95144.75;5041083;28;20079;-58
2020/12/30 01:33:24;;;;;;;14.73;7.18;;;;;;;-2.04;98.15;95152.69;5035961;28;20068;-58
2020/12/30 01:35:50;;;;;;;11.95;6.93;;;;;;;-2.18;97.93;95158.28;5041436;28;20539;-61
2020/12/30 01:38:15;;;;;;;17.13;8.52;;;;;;;-2.22;98.14;95157.34;5036236;28;20135;-57
2020/12/30 01:40:41;;;;;;;22.95;11.05;;;;;;;-2.18;98.63;95164.44;5044754;28;20044;-61
2020/12/30 01:43:07;;;;;;;15.07;9.25;;;;;;;-2.14;99.03;95159.22;5035848;28;20041;-60
2020/12/30 01:45:33;;;;;;;16.63;8.90;;;;;;;-2.14;98.66;95148.50;5038310;28;20040;-58
2020/12/30 01:48:06;;;;;;;17.13;8.95;;;;;;;-2.07;98.98;95145.28;5040548;28;20409;-60
2020/12/30 01:50:31;;;;;;;24.77;9.13;;;;;;;-2.01;99.36;95138.66;5038952;28;20485;-59
2020/12/30 01:52:57;;;;;;;15.20;9.85;;;;;;;-2.14;99.31;95160.00;5038837;28;20098;-59
2020/12/30 01:55:27;;;;;;;13.10;8.43;;;;;;;-2.10;99.09;95149.41;5016694;28;20502;-60
2020/12/30 01:57:52;;;;;;;18.63;9.30;;;;;;;-2.17;98.56;95155.28;5039736;28;20041;-61
2020/12/30 02:00:18;;;;;;;17.23;8.65;;;;;;;-2.14;98.85;95164.59;5035072;28;20041;-59
2020/12/30 02:02:47;;;;;;;14.95;8.70;;;;;;;-2.22;98.90;95146.63;5021700;28;20048;-59
2020/12/30 02:05:19;;;;;;;18.10;10.32;;;;;;;-2.24;98.98;95154.22;5034056;28;20124;-58
2020/12/30 02:07:45;;;;;;;16.52;10.75;;;;;;;-2.31;99.12;95152.81;5040409;28;20033;-60
2020/12/30 02:10:11;;;;;;;18.63;9.10;;;;;;;-2.32;99.17;95148.56;5035373;28;20045;-57
2020/12/30 02:12:38;;;;;;;14.05;8.57;;;;;;;-2.15;99.28;95152.28;5039737;28;20752;-60
2020/12/30 02:15:04;;;;;;;13.88;9.45;;;;;;;-2.17;98.82;95155.28;5035888;28;20048;-61
2020/12/30 02:17:29;;;;;;;17.33;9.48;;;;;;;-2.17;98.56;95152.59;5019646;28;20036;-58
2020/12/30 02:19:55;;;;;;;16.15;8.93;;;;;;;-2.22;98.32;95152.00;5040297;28;20068;-58
2020/12/30 02:22:23;;;;;;;17.42;9.15;;;;;;;-2.28;98.60;95154.06;5034518;28;20048;-59
2020/12/30 02:24:48;;;;;;;16.33;9.73;;;;;;;-2.27;98.59;95152.16;5038606;28;20041;-56
2020/12/30 02:27:13;;;;;;;19.38;9.52;;;;;;;-2.24;98.18;95146.94;5032827;28;20044;-60
2020/12/30 02:29:39;;;;;;;35.70;12.32;;;;;;;-2.20;98.62;95150.53;5039532;28;20102;-58
2020/12/30 02:32:04;;;;;;;20.05;10.32;;;;;;;-2.05;98.40;95151.13;5034316;28;20522;-63
2020/12/30 02:34:30;;;;;;;19.65;10.88;;;;;;;-2.04;98.88;95152.69;5020130;28;20129;-60
2020/12/30 02:36:56;;;;;;;43.35;13.63;;;;;;;-2.16;98.53;95164.09;5039326;28;20041;-58
2020/12/30 02:39:23;;;;;;;19.25;8.80;;;;;;;-2.23;98.61;95166.50;5016218;28;20045;-60
2020/12/30 02:41:49;;;;;;;16.95;8.57;;;;;;;-2.31;98.83;95168.91;5039224;28;20387;-57
2020/12/30 02:44:15;;;;;;;19.92;9.00;;;;;;;-2.37;98.36;95167.50;5031906;28;20493;-59
2020/12/30 02:46:40;;;;;;;17.55;9.45;;;;;;;-2.44;98.41;95174.47;5038612;28;20045;-59
2020/12/30 02:49:05;;;;;;;17.20;9.63;;;;;;;-2.66;98.64;95168.22;5034380;28;20045;-60
2020/12/30 02:51:31;;;;;;;19.02;10.15;;;;;;;-2.53;99.88;95167.22;5038448;28;20048;-58
2020/12/30 02:53:56;;;;;;;20.23;12.20;;;;;;;-2.39;100.00;95175.09;5041630;28;20098;-60
2020/12/30 02:56:22;;;;;;;19.85;11.27;;;;;;;-2.31;100.00;95166.22;5042923;28;20508;-60
2020/12/30 02:58:48;;;;;;;23.48;10.77;;;;;;;-2.24;100.00;95156.91;5046352;28;20068;-61
2020/12/30 03:01:14;;;;;;;25.75;13.80;;;;;;;-2.34;100.00;95166.06;5034945;28;20432;-57
2020/12/30 03:03:40;;;;;;;24.38;12.55;;;;;;;-2.41;100.00;95163.09;5039869;28;20044;-58
2020/12/30 03:06:06;;;;;;;23.30;12.88;;;;;;;-2.43;100.00;95165.31;5016824;28;20094;-59
2020/12/30 03:08:33;;;;;;;16.58;10.27;;;;;;;-2.44;99.58;95167.22;5039680;28;20608;-61
2020/12/30 03:11:00;;;;;;;17.98;10.07;;;;;;;-2.50;99.63;95173.88;5043639;28;20037;-55
2020/12/30 03:13:26;;;;;;;15.50;9.82;;;;;;;-2.52;99.91;95178.75;5037643;28;20037;-58
2020/12/30 03:15:51;;;;;;;15.93;10.18;;;;;;;-2.61;99.48;95186.81;5025729;28;20095;-59
2020/12/30 03:18:17;;;;;;;18.67;10.90;;;;;;;-2.64;99.50;95184.78;5039449;28;20367;-59
2020/12/30 03:20:42;;;;;;;16.38;9.20;;;;;;;-2.61;99.77;95194.88;5047425;28;20041;-56
2020/12/30 03:23:08;;;;;;;19.30;9.23;;;;;;;-2.58;99.62;95188.84;5038836;28;20037;-62
2020/12/30 03:25:34;;;;;;;15.55;9.30;;;;;;;-2.58;99.52;95193.44;5043751;28;20059;-59
2020/12/30 03:27:59;;;;;;;14.10;9.30;;;;;;;-2.55;99.41;95195.47;5042654;28;20048;-60
2020/12/30 03:30:25;;;;;;;12.52;8.18;;;;;;;-2.54;99.03;95197.84;5039311;28;20045;-59
2020/12/30 03:32:50;;;;;;;16.55;8.88;;;;;;;-2.61;99.09;95188.69;5042069;28;20517;-59
2020/12/30 03:35:17;;;;;;;15.00;8.18;;;;;;;-2.63;99.41;95196.28;5037752;28;20033;-56
2020/12/30 03:37:42;;;;;;;12.40;8.13;;;;;;;-2.66;99.47;95194.25;5040644;28;20145;-57
2020/12/30 03:40:08;;;;;;;16.35;8.10;;;;;;;-2.71;99.30;95187.94;5037230;28;20041;-57
2020/12/30 03:42:33;;;;;;;11.15;7.63;;;;;;;-2.68;99.38;95189.22;5024478;28;20041;-59
2020/12/30 03:44:59;;;;;;;14.60;7.88;;;;;;;-2.69;98.94;95192.97;5042287;28;20518;-59
2020/12/30 03:47:28;;;;;;;12.77;7.72;;;;;;;-2.68;98.65;95191.88;5037768;28;20052;-59
2020/12/30 03:49:54;;;;;;;13.00;7.50;;;;;;;-2.69;98.43;95191.06;5042681;28;20814;-58
2020/12/30 03:52:19;;;;;;;13.15;7.28;;;;;;;-2.71;98.78;95190.63;5037159;28;20076;-59
2020/12/30 03:54:45;;;;;;;13.30;6.97;;;;;;;-2.77;98.77;95185.75;5049104;28;20073;-56
2020/12/30 03:57:10;;;;;;;9.80;7.00;;;;;;;-2.80;98.74;95189.06;5031064;28;20132;-59
2020/12/30 03:59:36;;;;;;;10.73;6.63;;;;;;;-2.70;98.74;95184.16;5046892;28;20069;-57
2020/12/30 04:02:01;;;;;;;10.77;6.93;;;;;;;-2.72;98.55;95189.06;5041585;28;20120;-62
2020/12/30 04:04:27;;;;;;;9.18;6.57;;;;;;;-2.67;98.33;95196.13;5038869;28;20067;-58
2020/12/30 04:06:52;;;;;;;10.38;6.05;;;;;;;-2.67;98.50;95198.03;5041181;28;20443;-57
2020/12/30 04:09:18;;;;;;;11.05;6.78;;;;;;;-2.73;98.24;95208.13;5037561;28;20075;-55
2020/12/30 04:11:43;;;;;;;10.38;6.45;;;;;;;-2.70;97.97;95213.63;5042625;28;20645;-58
2020/12/30 04:14:08;;;;;;;9.18;6.38;;;;;;;-2.67;97.39;95217.56;5034668;28;20080;-55
2020/12/30 04:16:34;;;;;;;9.40;5.93;;;;;;;-2.62;97.65;95225.44;5042207;28;20123;-59
2020/12/30 04:18:59;;;;;;;7.80;5.97;;;;;;;-2.66;97.55;95224.50;5037789;28;20099;-56
2020/12/30 04:21:25;;;;;;;10.18;5.35;;;;;;;-2.61;97.70;95223.53;5017456;28;20723;-59
2020/12/30 04:23:52;;;;;;;10.80;5.80;;;;;;;-2.64;97.46;95224.97;5041018;28;20045;-59
2020/12/30 04:26:19;;;;;;;11.82;7.00;;;;;;;-2.72;97.44;95220.41;5035830;28;20041;-58
2020/12/30 04:28:44;;;;;;;9.50;5.63;;;;;;;-2.60;97.60;95228.59;5039301;28;20041;-58
2020/12/30 04:31:14;;;;;;;9.30;5.55;;;;;;;-2.69;96.91;95225.16;5034596;28;20048;-60
2020/12/30 04:33:39;;;;;;;7.85;5.00;;;;;;;-2.89;96.82;95224.69;5027260;28;20037;-57
2020/12/30 04:36:06;;;;;;;9.73;5.82;;;;;;;-2.95;96.24;95219.81;5034625;28;20044;-61
2020/12/30 04:38:32;;;;;;;15.93;6.60;;;;;;;-3.08;96.96;95225.03;5037503;28;20049;-58
2020/12/30 04:41:03;;;;;;;10.95;6.65;;;;;;;-3.07;97.81;95223.91;5041843;28;20155;-60
2020/12/30 04:43:30;;;;;;;13.23;7.07;;;;;;;-3.03;97.87;95232.09;5037645;28;20072;-59
2020/12/30 04:45:58;;;;;;;12.15;6.60;;;;;;;-2.79;97.67;95222.78;5041749;28;20045;-60
2020/12/30 04:48:25;;;;;;;16.55;7.68;;;;;;;-2.47;98.02;95224.16;5034168;28;20956;-60
2020/12/30 04:50:51;;;;;;;13.43;6.95;;;;;;;-2.39;97.46;95222.56;5038631;28;20135;-58
2020/12/30 04:53:21;;;;;;;10.32;7.47;;;;;;;-2.42;97.27;95226.66;5036140;28;20131;-59
2020/12/30 04:55:48;;;;;;;12.38;7.82;;;;;;;-2.36;97.34;95227.28;5024014;28;20478;-59
2020/12/30 04:58:15;;;;;;;12.23;7.95;;;;;;;-2.41;97.06;95224.75;5035615;28;20053;-61
2020/12/30 05:00:42;;;;;;;13.23;7.07;;;;;;;-2.45;97.08;95226.50;5043179;28;20040;-61
2020/12/30 05:03:10;;;;;;;16.08;8.18;;;;;;;-2.40;96.85;95226.34;5036109;28;20041;-61
2020/12/30 05:05:39;;;;;;;15.00;6.95;;;;;;;-2.35;97.25;95229.66;5039524;28;20111;-59
2020/12/30 05:08:14;;;;;;;14.77;6.63;;;;;;;-2.26;96.76;95236.91;5016645;28;20049;-58
2020/12/30 05:10:46;;;;;;;9.25;5.82;;;;;;;-2.21;97.04;95236.72;5022160;28;20045;-58
2020/12/30 05:13:12;;;;;;;8.32;5.13;;;;;;;-2.14;97.09;95245.06;5035601;28;20128;-61
2020/12/30 05:15:38;;;;;;;8.00;5.30;;;;;;;-2.22;96.83;95254.69;5040980;28;20414;-60
2020/12/30 05:18:06;;;;;;;10.63;5.55;;;;;;;-2.25;96.41;95250.00;5034671;28;20049;-62
2020/12/30 05:20:35;;;;;;;9.02;5.25;;;;;;;-2.25;96.47;95262.59;5039264;28;20037;-56
2020/12/30 05:23:06;;;;;;;9.07;6.35;;;;;;;-2.10;96.52;95264.00;5039932;28;20052;-57
2020/12/30 05:25:35;;;;;;;10.45;6.53;;;;;;;-1.96;96.82;95264.56;5038897;28;20045;-57
2020/12/30 05:28:03;;;;;;;8.38;6.18;;;;;;;-2.02;95.96;95261.25;5039839;28;20490;-60
2020/12/30 05:30:30;;;;;;;10.73;5.95;;;;;;;-2.13;95.76;95270.78;5038708;28;20040;-57
2020/12/30 05:32:55;;;;;;;8.50;5.88;;;;;;;-2.19;95.67;95272.84;5022686;28;20044;-61
2020/12/30 05:35:21;;;;;;;9.52;5.15;;;;;;;-2.25;95.31;95274.13;5033257;28;20506;-58
2020/12/30 05:37:47;;;;;;;8.45;5.65;;;;;;;-2.37;95.87;95279.34;5038481;28;20087;-59
2020/12/30 05:40:22;;;;;;;10.98;5.78;;;;;;;-2.49;95.87;95282.66;5017082;28;20041;-59
2020/12/30 05:42:49;;;;;;;6.93;5.00;;;;;;;-2.57;95.97;95275.44;5038807;28;20052;-60
2020/12/30 05:45:23;;;;;;;10.23;5.97;;;;;;;-2.51;95.91;95290.25;5039094;28;20052;-60
2020/12/30 05:47:51;;;;;;;11.18;6.00;;;;;;;-2.34;96.04;95290.22;5048161;28;20048;-60
2020/12/30 05:50:22;;;;;;;10.75;6.07;;;;;;;-2.17;96.33;95288.63;5036976;28;20072;-59
2020/12/30 05:52:49;;;;;;;8.70;5.03;;;;;;;-2.14;96.49;95299.50;5038073;28;20056;-59
2020/12/30 05:55:14;;;;;;;10.70;5.57;;;;;;;-2.37;95.81;95298.91;5035001;28;20045;-59
2020/12/30 05:57:39;;;;;;;9.55;6.13;;;;;;;-2.31;95.95;95311.03;5040160;28;20048;-59
2020/12/30 06:00:07;;;;;;;8.20;5.30;;;;;;;-2.18;96.06;95316.53;5035546;28;20406;-61
2020/12/30 06:02:33;;;;;;;8.55;5.63;;;;;;;-2.06;96.24;95318.56;5040020;28;20053;-60
2020/12/30 06:05:21;;;;;;;14.65;5.38;;;;;;;-1.98;96.13;95321.25;5032966;28;20041;-60
2020/12/30 06:07:53;;;;;;;7.63;5.25;;;;;;;-1.98;95.82;95318.56;5035087;28;20509;-60
2020/12/30 06:10:21;;;;;;;7.53;4.95;;;;;;;-1.86;96.15;95319.78;5033863;28;20052;-56
2020/12/30 06:13:03;;;;;;;7.32;4.53;;;;;;;-1.80;95.77;95323.84;5038277;28;20045;-58
2020/12/30 06:15:30;;;;;;;7.88;4.95;;;;;;;-1.91;95.36;95315.38;5039588;28;20040;-60
2020/12/30 06:17:56;;;;;;;7.97;4.60;;;;;;;-2.28;95.17;95312.31;5038289;28;20064;-60
2020/12/30 06:20:31;;;;;;;6.82;4.93;;;;;;;-2.59;95.92;95324.00;5033482;28;21074;-59
2020/12/30 06:23:08;;;;;;;8.05;5.53;;;;;;;-2.66;97.19;95329.03;5039312;28;20498;-59
2020/12/30 06:25:35;;;;;;;8.15;4.95;;;;;;;-2.73;97.28;95334.88;5039168;28;20717;-56
2020/12/30 06:28:10;;;;;;;13.07;5.53;;;;;;;-2.78;97.36;95336.91;5038499;28;20044;-58
2020/12/30 06:30:37;;;;;;;27.67;12.32;;;;;;;-2.67;98.21;95332.03;5039437;28;20092;-60
2020/12/30 06:33:03;;;;;;;18.25;9.75;;;;;;;-2.66;98.26;95347.03;5037218;28;20044;-62
2020/12/30 06:35:31;;;;;;;13.95;7.30;;;;;;;-2.67;97.96;95340.84;5044624;28;20059;-58
2020/12/30 06:37:57;;;;;;;13.13;7.13;;;;;;;-2.47;98.18;95347.47;5050996;28;20045;-60
2020/12/30 06:40:23;;;;;;;13.13;7.45;;;;;;;-2.33;98.29;95345.44;5047798;28;21070;-61
2020/12/30 06:42:58;;;;;;;14.98;9.18;;;;;;;-2.26;98.38;95352.22;5024901;28;20068;-57
2020/12/30 06:45:42;;;;;;;14.85;7.75;;;;;;;-2.19;97.86;95357.91;5034891;28;20607;-56
2020/12/30 06:48:07;;;;;;;12.85;9.00;;;;;;;-2.23;96.97;95362.28;5030391;28;20430;-57
2020/12/30 06:50:33;;;;;;;13.77;8.18;;;;;;;-2.35;96.50;95358.38;5039521;28;20133;-59
2020/12/30 06:53:27;;;;;;;12.13;7.82;;;;;;;-2.35;97.00;95365.63;5039649;28;20048;-58
2020/12/30 06:55:57;;;;;;;12.52;6.93;;;;;;;-2.27;97.20;95369.41;5038095;28;20047;-58
2020/12/30 06:58:47;;;;;;;14.05;7.55;;;;;;;-2.22;97.09;95367.34;5015224;28;20137;-61
2020/12/30 07:01:19;;;;;;;14.90;8.07;;;;;;;-2.09;96.86;95370.19;5031981;28;20497;-59
2020/12/30 07:03:46;;;;;;;17.80;9.82;;;;;;;-2.09;96.81;95376.31;5035727;28;20037;-58
2020/12/30 07:06:31;;;;;;;13.93;8.40;;;;;;;-2.08;96.77;95377.91;5032959;28;20064;-60
2020/12/30 07:08:59;;;;;;;16.73;9.40;;;;;;;-1.89;96.42;95391.00;5037249;28;20048;-55
2020/12/30 07:11:38;;;;;;;13.70;7.63;;;;;;;-1.71;95.87;95383.69;5031307;28;20060;-55
2020/12/30 07:14:08;;;;;;;12.70;7.60;;;;;;;-2.02;95.35;95386.59;5035078;28;20424;-61
2020/12/30 07:16:35;;;;;;;21.65;11.30;;;;;;;-2.24;96.15;95387.56;5020699;28;20045;-60
2020/12/30 07:19:00;;;;;;;17.27;8.57;;;;;;;-2.12;96.63;95390.41;5038600;28;20052;-60
2020/12/30 07:21:26;;;;;;;14.75;8.90;;;;;;;-1.96;96.67;95390.69;5032019;28;20052;-61
2020/12/30 07:23:54;;;;;;;13.57;8.13;;;;;;;-1.83;96.58;95388.94;5037890;28;20044;-60
2020/12/30 07:26:20;;;;;;;13.85;8.85;;;;;;;-1.77;94.95;95382.28;5033564;28;20072;-59
2020/12/30 07:28:47;;;;;;;18.15;9.65;;;;;;;-1.76;94.72;95384.66;5039212;28;20516;-57
2020/12/30 07:31:16;;;;;;;13.63;8.40;;;;;;;-1.68;94.77;95387.63;5031254;28;20048;-60
2020/12/30 07:33:41;;;;;;;14.32;8.77;;;;;;;-1.65;94.94;95393.16;5038617;28;20146;-61
2020/12/30 07:36:08;;;;;;;14.27;7.82;;;;;;;-1.71;94.39;95399.81;5033919;28;20124;-59
2020/12/30 07:38:36;;;;;;;13.80;8.13;;;;;;;-1.81;94.99;95400.91;5038554;28;20052;-59
2020/12/30 07:41:05;;;;;;;16.73;9.48;;;;;;;-1.81;94.85;95406.28;5038619;28;20041;-59
2020/12/30 07:43:54;;;;;;;23.27;12.07;;;;;;;-1.70;94.96;95408.66;5037085;28;20046;-59
2020/12/30 07:46:21;;;;;;;14.10;7.50;;;;;;;-1.57;94.92;95419.22;5030513;28;20037;-60
2020/12/30 07:48:47;;;;;;;16.40;9.00;;;;;;;-1.18;95.15;95424.59;5037787;28;20892;-60
2020/12/30 07:51:13;;;;;;;19.75;9.30;;;;;;;-0.50;95.57;95437.25;5032766;28;20128;-64
2020/12/30 07:53:40;;;;;;;31.33;15.32;;;;;;;-0.02;92.61;95444.00;5039133;28;20148;-59
2020/12/30 07:56:06;;;;;;;18.33;10.43;;;;;;;0.36;86.60;95443.03;5035596;28;20044;-61
2020/12/30 07:58:31;;;;;;;12.82;7.60;;;;;;;0.35;86.25;95441.47;5007699;28;20045;-60
2020/12/30 08:00:58;;;;;;;24.58;11.98;;;;;;;0.25;86.61;95439.19;5042133;28;20045;-60
2020/12/30 08:03:23;;;;;;;31.27;11.90;;;;;;;0.07;86.02;95441.25;5037625;28;20437;-59
2020/12/30 08:05:50;;;;;;;19.80;9.10;;;;;;;0.02;87.08;95444.13;5042269;28;20045;-61
2020/12/30 08:08:17;;;;;;;15.35;8.02;;;;;;;-0.28;86.93;95442.31;5037056;28;20045;-57
2020/12/30 08:10:48;;;;;;;14.25;8.07;;;;;;;-0.44;88.06;95438.63;5042021;28;20045;-60
2020/12/30 08:13:15;;;;;;;11.75;7.63;;;;;;;-0.59;89.10;95443.44;5036632;28;20159;-59
2020/12/30 08:15:51;;;;;;;14.07;7.95;;;;;;;-0.73;90.26;95440.22;5041839;28;20064;-58
2020/12/30 08:18:16;;;;;;;22.10;13.68;;;;;;;-0.60;90.20;95446.47;5036547;28;20136;-60
2020/12/30 08:20:42;;;;;;;26.40;13.75;;;;;;;-0.53;88.82;95443.25;5025898;28;20199;-57
2020/12/30 08:23:07;;;;;;;38.42;20.17;;;;;;;-0.50;88.99;95448.78;5037049;28;20040;-58
2020/12/30 08:25:33;;;;;;;24.30;13.52;;;;;;;-0.46;88.88;95454.31;5042141;28;20041;-58
2020/12/30 08:27:58;;;;;;;13.65;8.40;;;;;;;-0.43;90.10;95443.69;5042539;28;20161;-62
2020/12/30 08:30:23;;;;;;;21.70;12.73;;;;;;;-0.21;89.05;95449.88;5017261;28;20513;-61
2020/12/30 08:33:04;;;;;;;19.70;11.27;;;;;;;0.37;89.67;95456.19;5041011;28;20155;-61
2020/12/30 08:35:33;;;;;;;18.50;10.63;;;;;;;0.97;85.25;95458.59;5035711;28;20093;-60
2020/12/30 08:38:15;;;;;;;12.70;7.30;;;;;;;0.84;86.15;95460.47;5037268;28;20102;-60
2020/12/30 08:40:41;;;;;;;9.13;6.53;;;;;;;1.27;84.31;95466.50;5039564;28;20053;-61
2020/12/30 08:43:13;;;;;;;11.38;7.10;;;;;;;0.85;85.55;95459.38;5023489;28;20045;-58
2020/12/30 08:45:47;;;;;;;15.15;7.28;;;;;;;0.84;86.09;95471.25;5042713;28;20044;-61
2020/12/30 08:48:13;;;;;;;12.07;6.32;;;;;;;1.61;83.24;95472.56;5034896;28;20120;-61
2020/12/30 08:50:40;;;;;;;22.60;10.90;;;;;;;1.11;84.57;95485.25;5039071;28;20505;-60
2020/12/30 08:53:05;;;;;;;11.88;7.93;;;;;;;0.70;86.53;95476.16;5008231;28;20139;-61
2020/12/30 08:55:31;;;;;;;8.75;5.72;;;;;;;0.78;84.25;95486.06;5036777;28;20135;-62
2020/12/30 08:57:57;;;;;;;9.85;6.22;;;;;;;0.57;86.03;95484.19;5031777;28;20067;-61
2020/12/30 09:00:24;;;;;;;12.68;6.68;;;;;;;0.85;86.64;95485.53;5031172;28;20064;-61
2020/12/30 09:02:54;;;;;;;12.50;6.80;;;;;;;1.07;85.17;95478.94;5018910;28;20405;-62
2020/12/30 09:05:30;;;;;;;10.23;6.25;;;;;;;1.49;83.60;95481.44;5036228;28;20171;-62
2020/12/30 09:08:19;;;;;;;11.50;6.50;;;;;;;1.46;83.68;95482.09;5037077;28;20044;-61
2020/12/30 09:10:46;;;;;;;10.88;6.03;;;;;;;1.49;83.69;95490.31;5026418;28;20052;-62
2020/12/30 09:13:16;;;;;;;13.52;7.60;;;;;;;1.39;83.60;95496.19;5027690;28;20106;-60
2020/12/30 09:15:42;;;;;;;10.70;6.55;;;;;;;1.50;83.70;95499.22;5038758;28;20041;-61
2020/12/30 09:18:12;;;;;;;14.85;7.63;;;;;;;1.73;82.97;95504.94;5032454;28;20130;-58
2020/12/30 09:20:37;;;;;;;11.25;6.18;;;;;;;1.88;81.67;95506.16;5061049;28;20053;-63
2020/12/30 09:23:03;;;;;;;10.95;6.10;;;;;;;2.01;81.08;95513.13;5045163;28;20044;-61
2020/12/30 09:25:31;;;;;;;11.10;6.05;;;;;;;2.16;81.30;95516.25;5036827;28;20120;-59
2020/12/30 09:27:57;;;;;;;10.10;5.97;;;;;;;2.21;80.76;95514.09;5036871;28;20103;-63
2020/12/30 09:30:26;;;;;;;12.13;5.60;;;;;;;2.25;81.05;95516.88;5020721;28;20524;-63
2020/12/30 09:32:53;;;;;;;9.68;5.85;;;;;;;2.15;80.35;95511.97;5035416;28;20045;-62
2020/12/30 09:35:26;;;;;;;16.65;9.18;;;;;;;1.10;84.13;95503.34;5024992;28;20044;-62
2020/12/30 09:37:56;;;;;;;19.67;8.88;;;;;;;0.69;88.23;95501.56;5037643;28;20048;-60
2020/12/30 09:40:23;;;;;;;16.55;10.35;;;;;;;0.49;88.60;95501.25;5031986;28;20048;-61
2020/12/30 09:42:48;;;;;;;15.25;10.50;;;;;;;0.68;88.55;95511.53;5032519;28;20543;-62
2020/12/30 09:45:16;;;;;;;21.08;10.05;;;;;;;1.00;87.93;95519.16;5031475;28;20041;-59
2020/12/30 09:47:42;;;;;;;19.40;11.10;;;;;;;1.31;87.62;95522.16;5038426;28;20485;-62
2020/12/30 09:50:12;;;;;;;15.70;9.13;;;;;;;1.31;85.76;95518.63;5030764;28;20072;-60
2020/12/30 09:52:42;;;;;;;18.80;11.60;;;;;;;1.37;85.14;95519.19;5036031;28;20122;-60
2020/12/30 09:55:09;;;;;;;14.50;9.27;;;;;;;1.03;87.52;95516.59;4997220;28;20179;-59
2020/12/30 09:57:36;;;;;;;12.50;8.13;;;;;;;0.78;88.71;95520.34;5037786;28;20047;-63
2020/12/30 10:00:04;;;;;;;15.85;9.02;;;;;;;0.76;89.40;95509.88;5040909;28;20067;-64
2020/12/30 10:02:30;;;;;;;23.05;12.10;;;;;;;1.08;89.32;95518.25;5039293;28;20040;-60
2020/12/30 10:04:55;;;;;;;14.10;9.00;;;;;;;1.14;88.28;95515.03;5039175;28;20048;-61
2020/12/30 10:07:21;;;;;;;17.58;9.10;;;;;;;1.33;87.68;95517.19;5030109;28;20041;-60
2020/12/30 10:09:46;;;;;;;14.60;8.55;;;;;;;1.73;87.70;95526.56;5017887;28;20484;-63
2020/12/30 10:12:11;;;;;;;14.45;8.68;;;;;;;1.90;85.33;95529.00;5030832;28;20152;-62
2020/12/30 10:14:37;;;;;;;14.90;7.90;;;;;;;1.80;85.21;95523.25;5039467;28;20048;-63
2020/12/30 10:17:02;;;;;;;13.35;8.20;;;;;;;1.68;86.11;95527.56;5036688;28;20385;-59
2020/12/30 10:19:28;;;;;;;14.30;9.00;;;;;;;1.96;85.33;95531.47;5035958;28;20037;-63
2020/12/30 10:21:53;;;;;;;15.10;8.75;;;;;;;2.40;83.96;95532.41;5030584;28;20053;-63
2020/12/30 10:24:18;;;;;;;15.25;8.40;;;;;;;2.73;81.78;95530.59;5016386;28;20037;-60
2020/12/30 10:26:44;;;;;;;15.88;9.00;;;;;;;2.28;82.43;95533.22;5036142;28;20805;-61
2020/12/30 10:29:09;;;;;;;12.20;8.02;;;;;;;2.24;83.50;95545.06;5020794;28;20041;-59
2020/12/30 10:31:35;;;;;;;11.82;8.50;;;;;;;2.12;83.33;95532.34;5035665;28;20538;-62
2020/12/30 10:34:00;;;;;;;15.02;8.50;;;;;;;1.48;86.03;95529.22;5038256;28;20145;-61
2020/12/30 10:36:29;;;;;;;16.48;9.68;;;;;;;1.26;87.03;95538.53;5034737;28;20131;-62
2020/12/30 10:39:02;;;;;;;14.63;8.68;;;;;;;1.11;88.45;95539.19;5037995;28;20041;-62
2020/12/30 10:41:29;;;;;;;16.88;9.50;;;;;;;1.21;88.35;95538.75;5009065;28;20139;-61
2020/12/30 10:43:54;;;;;;;15.95;9.43;;;;;;;1.20;88.81;95537.16;5030220;28;20041;-63
2020/12/30 10:46:20;;;;;;;36.75;12.27;;;;;;;1.24;89.38;95535.41;5030465;28;20115;-61
2020/12/30 10:48:47;;;;;;;22.23;9.57;;;;;;;1.46;88.68;95528.78;5035718;28;20055;-59
2020/12/30 10:51:17;;;;;;;25.25;12.13;;;;;;;1.70;88.72;95536.09;5025583;28;20060;-63
2020/12/30 10:53:42;;;;;;;;;;;;;;;2.25;85.61;95538.50;5042350;28;20051;-62
2020/12/30 10:56:13;;;;;;;26.65;10.10;;;;;;;2.49;84.69;95540.38;5033745;28;20217;-62
2020/12/30 10:58:39;;;;;;;12.13;6.60;;;;;;;2.65;83.99;95548.56;5038600;28;20041;-62
2020/12/30 11:01:09;;;;;;;9.77;5.65;;;;;;;2.60;84.96;95554.19;5031882;28;20045;-61
2020/12/30 11:03:34;;;;;;;5.78;4.07;;;;;;;2.64;83.70;95557.78;5039001;28;20045;-62
2020/12/30 11:06:00;;;;;;;7.85;4.65;;;;;;;2.48;85.02;95560.41;5038064;28;20367;-62
2020/12/30 11:08:27;;;;;;;8.35;5.00;;;;;;;2.46;85.28;95558.03;5032189;28;20048;-62
2020/12/30 11:10:52;;;;;;;5.38;3.83;;;;;;;2.50;84.31;95552.75;5039760;28;20037;-61
2020/12/30 11:13:18;;;;;;;8.63;5.15;;;;;;;2.68;84.86;95555.97;5033919;28;20396;-62
2020/12/30 11:15:43;;;;;;;7.32;4.95;;;;;;;2.73;84.60;95560.34;5037984;28;20064;-61
2020/12/30 11:18:09;;;;;;;7.20;3.92;;;;;;;2.71;84.25;95565.31;5028125;28;20041;-61
2020/12/30 11:20:34;;;;;;;5.30;3.55;;;;;;;2.78;84.04;95566.28;5012179;28;20049;-60
2020/12/30 11:22:59;;;;;;;4.80;3.28;;;;;;;2.78;84.98;95565.50;5034008;28;20424;-62
2020/12/30 11:25:25;;;;;;;6.50;3.50;;;;;;;2.81;84.73;95557.50;5023693;28;20712;-62
2020/12/30 11:27:51;;;;;;;6.72;3.88;;;;;;;3.09;84.77;95553.22;5029176;28;20053;-60
2020/12/30 11:30:18;;;;;;;7.90;3.72;;;;;;;3.47;82.28;95552.63;5022027;28;20044;-63